createdAt,value
2023-05-15T00:01:39.000Z,95862.53
2023-05-15T00:04:05.829Z,95859.22
2023-05-15T00:06:32.818Z,95851.53
2023-05-15T00:08:59.649Z,95857.16
2023-05-15T00:11:28.161Z,95818.09
2023-05-15T00:13:55.062Z,95854.19
2023-05-15T00:16:22.095Z,95848.03
2023-05-15T00:18:52.310Z,95843.06
2023-05-15T00:21:19.206Z,95838.34
2023-05-15T00:23:47.741Z,95843.53
2023-05-15T00:26:15.979Z,95774.38
2023-05-15T00:28:42.912Z,95822.63
2023-05-15T00:31:09.886Z,95809.88
2023-05-15T00:33:36.867Z,95821.97
2023-05-15T00:36:03.830Z,95814.06
2023-05-15T00:38:31.272Z,95801.97
2023-05-15T00:40:58.408Z,95800.88
2023-05-15T00:43:26.716Z,95796.91
2023-05-15T00:45:54.250Z,95797.91
2023-05-15T00:48:22.928Z,95818.34
2023-05-15T00:50:51.924Z,95819.44
2023-05-15T00:53:19.137Z,95799.97
2023-05-15T00:55:47.237Z,95814.69
2023-05-15T00:58:15.577Z,95798.88
2023-05-15T01:00:47.300Z,95805.03
2023-05-15T01:03:14.346Z,95803.50
2023-05-15T01:05:41.308Z,95760.53
2023-05-15T01:08:21.910Z,95820.75
2023-05-15T01:10:52.284Z,95827.22
2023-05-15T01:13:23.537Z,95806.69
2023-05-15T01:15:50.729Z,95796.31
2023-05-15T01:18:17.733Z,95784.91
2023-05-15T01:20:57.265Z,95812.38
2023-05-15T01:24:04.613Z,95797.97
2023-05-15T01:26:53.344Z,95821.38
2023-05-15T01:29:41.593Z,95813.13
2023-05-15T01:32:37.769Z,95808.13
2023-05-15T01:35:21.614Z,95796.44
2023-05-15T01:37:55.217Z,95804.91
2023-05-15T01:40:26.403Z,95802.34
2023-05-15T01:43:01.616Z,95801.47
2023-05-15T01:45:29.560Z,95798.06
2023-05-15T01:47:59.511Z,95802.16
2023-05-15T01:50:28.494Z,95804.78
2023-05-15T01:52:58.982Z,95806.00
2023-05-15T01:55:28.131Z,95791.94
2023-05-15T01:57:56.933Z,95804.72
2023-05-15T02:00:23.922Z,95787.66
2023-05-15T02:02:53.428Z,95778.19
2023-05-15T02:05:20.931Z,95791.06
2023-05-15T02:07:49.439Z,95772.72
2023-05-15T02:10:18.557Z,95784.03
2023-05-15T02:12:49.719Z,95771.53
2023-05-15T02:15:18.406Z,95780.06
2023-05-15T02:17:47.016Z,95694.19
2023-05-15T02:20:14.615Z,95781.50
2023-05-15T02:22:41.552Z,95774.38
2023-05-15T02:25:08.818Z,95772.28
2023-05-15T02:27:54.045Z,95763.94
2023-05-15T02:30:35.182Z,95769.75
2023-05-15T02:33:23.741Z,95760.31
2023-05-15T02:36:02.643Z,95733.84
2023-05-15T02:38:52.302Z,95767.31
2023-05-15T02:41:20.031Z,95742.28
2023-05-15T02:43:50.643Z,95774.06
2023-05-15T02:46:19.967Z,95751.31
2023-05-15T02:48:48.512Z,95773.28
2023-05-15T02:51:15.483Z,95764.88
2023-05-15T02:53:42.800Z,95767.63
2023-05-15T02:56:09.805Z,95744.00
2023-05-15T02:58:38.052Z,95744.66
2023-05-15T03:01:05.013Z,95728.56
2023-05-15T03:03:32.041Z,95728.56
2023-05-15T03:06:01.168Z,95730.28
2023-05-15T03:08:28.878Z,95762.22
2023-05-15T03:10:55.856Z,95738.06
2023-05-15T03:13:22.762Z,95725.97
2023-05-15T03:15:49.684Z,95748.97
2023-05-15T03:18:19.132Z,95737.75
2023-05-15T03:20:47.940Z,95738.44
2023-05-15T03:23:14.836Z,95743.03
2023-05-15T03:25:41.732Z,95746.34
2023-05-15T03:28:08.598Z,95711.06
2023-05-15T03:30:35.465Z,95679.91
2023-05-15T03:33:04.208Z,95727.09
2023-05-15T03:35:32.552Z,95732.13
2023-05-15T03:37:59.593Z,95726.66
2023-05-15T03:40:26.490Z,95738.63
2023-05-15T03:42:53.773Z,95734.47
2023-05-15T03:45:21.530Z,95735.47
2023-05-15T03:47:49.070Z,95732.94
2023-05-15T03:50:16.471Z,95717.16
2023-05-15T03:52:43.442Z,95708.69
2023-05-15T03:55:10.560Z,95703.19
2023-05-15T03:57:37.524Z,95689.78
2023-05-15T04:00:10.309Z,95729.88
2023-05-15T04:02:41.355Z,95709.25
2023-05-15T04:05:08.886Z,95720.75
2023-05-15T04:07:37.016Z,95719.03
2023-05-15T04:10:04.320Z,95693.19
2023-05-15T04:12:33.648Z,95722.09
2023-05-15T04:15:20.606Z,95690.78
2023-05-15T04:17:49.593Z,95722.19
2023-05-15T04:20:21.118Z,95716.59
2023-05-15T04:22:48.485Z,95727.03
2023-05-15T04:25:16.487Z,95726.25
2023-05-15T04:27:43.950Z,95706.28
2023-05-15T04:30:11.703Z,95719.56
2023-05-15T04:32:39.781Z,95705.16
2023-05-15T04:35:12.469Z,95721.97
2023-05-15T04:37:40.396Z,95721.44
2023-05-15T04:40:08.389Z,95714.06
2023-05-15T04:42:38.585Z,95662.34
2023-05-15T04:45:07.265Z,95723.06
2023-05-15T04:47:34.462Z,95727.13
2023-05-15T04:50:01.392Z,95666.50
2023-05-15T04:52:28.321Z,95707.69
2023-05-15T04:54:56.276Z,95692.31
2023-05-15T04:57:23.553Z,95728.88
2023-05-15T04:59:50.492Z,95718.44
2023-05-15T05:02:21.782Z,95730.94
2023-05-15T05:04:48.776Z,95737.44
2023-05-15T05:07:15.971Z,95715.47
2023-05-15T05:09:43.245Z,95718.41
2023-05-15T05:12:10.756Z,95739.03
2023-05-15T05:14:37.774Z,95703.38
2023-05-15T05:17:04.868Z,95720.84
2023-05-15T05:19:31.736Z,95717.81
2023-05-15T05:22:01.559Z,95740.16
2023-05-15T05:24:28.788Z,95672.69
2023-05-15T05:26:58.311Z,95709.56
2023-05-15T05:29:25.514Z,95708.88
2023-05-15T05:31:52.838Z,95723.28
2023-05-15T05:34:20.607Z,95724.47
2023-05-15T05:36:47.666Z,95735.13
2023-05-15T05:39:16.841Z,95714.94
2023-05-15T05:41:44.086Z,95725.25
2023-05-15T05:44:11.264Z,95717.41
2023-05-15T05:46:38.177Z,95716.72
2023-05-15T05:49:05.104Z,95740.94
2023-05-15T05:51:32.386Z,95705.47
2023-05-15T05:53:59.195Z,95717.13
2023-05-15T05:56:26.787Z,95731.50
2023-05-15T05:58:53.978Z,95717.47
2023-05-15T06:01:21.318Z,95735.38
2023-05-15T06:03:48.613Z,95733.44
2023-05-15T06:06:15.560Z,95731.47
2023-05-15T06:08:42.411Z,95743.03
2023-05-15T06:11:09.255Z,95720.41
2023-05-15T06:13:36.190Z,95714.41
2023-05-15T06:16:03.039Z,95734.00
2023-05-15T06:18:30.025Z,95704.13
2023-05-15T06:20:59.030Z,95743.00
2023-05-15T06:23:28.983Z,95723.69
2023-05-15T06:25:55.914Z,95718.63
2023-05-15T06:28:22.859Z,95716.31
2023-05-15T06:30:49.787Z,95750.63
2023-05-15T06:33:16.703Z,95725.94
2023-05-15T06:35:43.772Z,95747.09
2023-05-15T06:38:11.002Z,95699.72
2023-05-15T06:40:37.844Z,95731.59
2023-05-15T06:43:04.777Z,95730.84
2023-05-15T06:45:31.682Z,95728.06
2023-05-15T06:48:01.430Z,95713.50
2023-05-15T06:50:28.812Z,95700.50
2023-05-15T06:52:55.696Z,95742.13
2023-05-15T06:55:22.599Z,95717.56
2023-05-15T06:57:49.653Z,95734.09
2023-05-15T07:00:16.918Z,95724.25
2023-05-15T07:02:44.140Z,95725.47
2023-05-15T07:05:11.841Z,95738.31
2023-05-15T07:07:38.731Z,95748.97
2023-05-15T07:10:06.334Z,95742.25
2023-05-15T07:12:34.383Z,95718.13
2023-05-15T07:15:01.277Z,95721.22
2023-05-15T07:17:28.215Z,95717.06
2023-05-15T07:19:55.218Z,95719.09
2023-05-15T07:22:22.165Z,95717.25
2023-05-15T07:24:49.048Z,95722.31
2023-05-15T07:27:15.927Z,95712.03
2023-05-15T07:29:42.777Z,95735.19
2023-05-15T07:32:09.641Z,95724.84
2023-05-15T07:34:36.481Z,95724.22
2023-05-15T07:37:03.381Z,95734.38
2023-05-15T07:39:30.335Z,95732.59
2023-05-15T07:41:57.191Z,95707.75
2023-05-15T07:44:24.031Z,95726.72
2023-05-15T07:46:50.932Z,95730.22
2023-05-15T07:49:17.780Z,95726.94
2023-05-15T07:51:44.628Z,95740.25
2023-05-15T07:54:11.468Z,95714.84
2023-05-15T07:56:39.272Z,95745.13
2023-05-15T07:59:06.137Z,95731.91
2023-05-15T08:01:33.117Z,95737.56
2023-05-15T08:04:00.578Z,95697.00
2023-05-15T08:06:27.564Z,95725.41
2023-05-15T08:08:54.492Z,95727.66
2023-05-15T08:11:22.181Z,95713.88
2023-05-15T08:13:49.095Z,95706.09
2023-05-15T08:16:16.227Z,95727.91
2023-05-15T08:18:43.126Z,95703.19
2023-05-15T08:21:10.136Z,95722.25
2023-05-15T08:23:37.089Z,95731.09
2023-05-15T08:26:03.999Z,95715.50
2023-05-15T08:28:30.851Z,95713.47
2023-05-15T08:30:57.715Z,95717.03
2023-05-15T08:33:24.632Z,95715.03
2023-05-15T08:35:52.180Z,95721.22
2023-05-15T08:38:19.043Z,95720.44
2023-05-15T08:40:47.669Z,95696.34
2023-05-15T08:43:17.745Z,95721.53
2023-05-15T08:45:44.596Z,95723.41
2023-05-15T08:48:17.362Z,95702.25
2023-05-15T08:50:44.560Z,95715.00
2023-05-15T08:53:13.487Z,95715.44
2023-05-15T08:55:40.868Z,95713.53
2023-05-15T08:58:08.399Z,95707.25
2023-05-15T09:00:35.352Z,95717.03
2023-05-15T09:03:02.356Z,95691.56
2023-05-15T09:05:30.570Z,95716.63
2023-05-15T09:07:59.980Z,95712.03
2023-05-15T09:10:26.884Z,95687.25
2023-05-15T09:12:54.994Z,95706.13
2023-05-15T09:15:25.797Z,95713.47
2023-05-15T09:17:53.020Z,95704.78
2023-05-15T09:20:37.753Z,95721.63
2023-05-15T09:23:06.492Z,95715.06
2023-05-15T09:25:41.827Z,95706.38
2023-05-15T09:28:11.441Z,95711.66
2023-05-15T09:30:39.378Z,95712.84
2023-05-15T09:33:06.395Z,95688.75
2023-05-15T09:35:35.191Z,95710.09
2023-05-15T09:38:03.822Z,95692.97
2023-05-15T09:40:32.302Z,95706.97
2023-05-15T09:42:59.941Z,95711.19
2023-05-15T09:45:30.380Z,95691.41
2023-05-15T09:48:00.249Z,95709.38
2023-05-15T09:50:34.439Z,95689.84
2023-05-15T09:53:01.666Z,95689.94
2023-05-15T09:55:31.471Z,95698.66
2023-05-15T09:58:15.653Z,95688.34
2023-05-15T10:00:47.980Z,95684.88
2023-05-15T10:03:19.073Z,95700.38
2023-05-15T10:05:46.460Z,95684.84
2023-05-15T10:08:15.100Z,95673.84
2023-05-15T10:10:42.735Z,95674.22
2023-05-15T10:13:10.638Z,95669.34
2023-05-15T10:15:39.196Z,95666.53
2023-05-15T10:18:07.486Z,95670.88
2023-05-15T10:20:36.108Z,95691.06
2023-05-15T10:23:06.689Z,95696.06
2023-05-15T10:25:36.213Z,95684.94
2023-05-15T10:28:03.610Z,95681.66
2023-05-15T10:30:32.463Z,95684.88
2023-05-15T10:33:01.009Z,95663.22
2023-05-15T10:35:28.824Z,95660.56
2023-05-15T10:37:57.167Z,95654.81
2023-05-15T10:40:24.910Z,95669.28
2023-05-15T10:42:52.091Z,95675.78
2023-05-15T10:45:19.660Z,95666.91
2023-05-15T10:47:47.161Z,95669.19
2023-05-15T10:50:14.611Z,95648.84
2023-05-15T10:52:42.475Z,95648.25
2023-05-15T10:55:13.807Z,95670.16
2023-05-15T10:57:41.236Z,95662.75
2023-05-15T11:00:34.401Z,95655.44
2023-05-15T11:03:02.330Z,95665.41
2023-05-15T11:05:31.259Z,95650.09
2023-05-15T11:08:18.041Z,95672.91
2023-05-15T11:10:45.296Z,95665.34
2023-05-15T11:13:12.344Z,95645.22
2023-05-15T11:15:44.238Z,95657.50
2023-05-15T11:18:11.436Z,95663.19
2023-05-15T11:20:54.816Z,95661.31
2023-05-15T11:23:23.034Z,95654.81
2023-05-15T11:25:54.990Z,95670.59
2023-05-15T11:28:23.655Z,95671.34
2023-05-15T11:30:59.596Z,95672.75
2023-05-15T11:33:29.798Z,95655.03
2023-05-15T11:36:00.834Z,95637.56
2023-05-15T11:38:27.715Z,95636.44
2023-05-15T11:41:03.099Z,95666.81
2023-05-15T11:43:31.974Z,95673.69
2023-05-15T11:46:00.235Z,95679.09
2023-05-15T11:48:39.400Z,95680.63
2023-05-15T11:51:30.941Z,95662.78
2023-05-15T11:53:58.392Z,95676.63
2023-05-15T11:56:30.052Z,95664.13
2023-05-15T11:59:04.262Z,95677.00
2023-05-15T12:01:47.546Z,95673.47
2023-05-15T12:04:15.886Z,95675.69
2023-05-15T12:06:44.847Z,95676.06
2023-05-15T12:09:19.696Z,95661.69
2023-05-15T12:11:56.282Z,95662.81
2023-05-15T12:14:30.590Z,95659.63
2023-05-15T12:17:04.822Z,95649.50
2023-05-15T12:19:33.601Z,95662.81
2023-05-15T12:22:00.626Z,95663.13
2023-05-15T12:24:27.649Z,95644.16
2023-05-15T12:26:56.701Z,95671.59
2023-05-15T12:29:26.011Z,95641.44
2023-05-15T12:31:54.318Z,95682.22
2023-05-15T12:34:22.017Z,95666.22
2023-05-15T12:36:49.121Z,95652.41
2023-05-15T12:39:16.114Z,95621.16
2023-05-15T12:41:46.032Z,95667.75
2023-05-15T12:44:20.452Z,95652.06
2023-05-15T12:46:48.223Z,95671.56
2023-05-15T12:49:21.906Z,95642.66
2023-05-15T12:51:49.025Z,95657.41
2023-05-15T12:54:20.510Z,95667.13
2023-05-15T12:56:48.784Z,95645.94
2023-05-15T12:59:15.999Z,95663.94
2023-05-15T13:01:42.945Z,95659.91
2023-05-15T13:04:10.408Z,95651.19
2023-05-15T13:06:46.247Z,95670.56
2023-05-15T13:09:14.346Z,95678.25
2023-05-15T13:11:45.467Z,95673.78
2023-05-15T13:14:17.604Z,95658.22
2023-05-15T13:16:47.975Z,95662.25
2023-05-15T13:19:16.109Z,95648.25
2023-05-15T13:21:44.125Z,95670.59
2023-05-15T13:24:11.275Z,95662.78
2023-05-15T13:26:38.402Z,95655.56
2023-05-15T13:29:05.500Z,95636.78
2023-05-15T13:31:32.634Z,95653.22
2023-05-15T13:33:59.549Z,95658.66
2023-05-15T13:36:26.417Z,95656.09
2023-05-15T13:38:53.314Z,95649.94
2023-05-15T13:41:20.154Z,95661.41
2023-05-15T13:43:49.464Z,95661.78
2023-05-15T13:46:16.768Z,95642.50
2023-05-15T13:48:43.757Z,95647.84
2023-05-15T13:51:10.798Z,95635.94
2023-05-15T13:53:37.639Z,95659.94
2023-05-15T13:56:04.674Z,95658.59
2023-05-15T13:58:31.607Z,95650.50
2023-05-15T14:00:59.179Z,95647.72
2023-05-15T14:03:26.204Z,95635.00
2023-05-15T14:05:53.192Z,95654.44
2023-05-15T14:08:20.044Z,95637.88
2023-05-15T14:10:47.018Z,95636.97
2023-05-15T14:13:13.881Z,95648.69
2023-05-15T14:15:40.738Z,95649.16
2023-05-15T14:18:07.733Z,95631.25
2023-05-15T14:20:34.673Z,95652.38
2023-05-15T14:23:01.667Z,95637.78
2023-05-15T14:25:28.556Z,95658.75
2023-05-15T14:27:55.581Z,95610.06
2023-05-15T14:30:23.362Z,95651.91
2023-05-15T14:32:50.443Z,95627.75
2023-05-15T14:35:17.375Z,95633.44
2023-05-15T14:37:44.301Z,95623.59
2023-05-15T14:40:11.662Z,95649.88
2023-05-15T14:42:41.483Z,95611.63
2023-05-15T14:45:08.876Z,95657.50
2023-05-15T14:47:35.736Z,95611.94
2023-05-15T14:50:02.784Z,95642.28
2023-05-15T14:52:29.702Z,95637.34
2023-05-15T14:55:08.482Z,95656.00
2023-05-15T14:57:36.912Z,95630.34
2023-05-15T15:00:06.561Z,95660.25
2023-05-15T15:02:33.860Z,95635.53
2023-05-15T15:05:01.084Z,95656.84
2023-05-15T15:07:30.838Z,95663.81
2023-05-15T15:09:57.760Z,95655.31
2023-05-15T15:12:24.713Z,95664.19
2023-05-15T15:14:51.603Z,95663.13
2023-05-15T15:17:18.742Z,95637.78
2023-05-15T15:19:45.659Z,95674.44
2023-05-15T15:22:12.572Z,95676.50
2023-05-15T15:24:39.453Z,95672.00
2023-05-15T15:27:07.197Z,95657.09
2023-05-15T15:29:34.036Z,95660.06
2023-05-15T15:32:01.102Z,95680.34
2023-05-15T15:34:28.064Z,95671.66
2023-05-15T15:36:54.958Z,95672.75
2023-05-15T15:39:21.860Z,95687.25
2023-05-15T15:41:48.787Z,95681.56
2023-05-15T15:44:15.777Z,95684.22
2023-05-15T15:46:42.681Z,95657.88
2023-05-15T15:49:09.600Z,95684.59
2023-05-15T15:51:36.540Z,95671.25
2023-05-15T15:54:03.472Z,95669.69
2023-05-15T15:56:30.318Z,95683.06
2023-05-15T15:58:57.339Z,95688.00
2023-05-15T16:01:24.420Z,95675.75
2023-05-15T16:03:51.461Z,95681.13
2023-05-15T16:06:18.367Z,95661.69
2023-05-15T16:08:45.281Z,95679.59
2023-05-15T16:11:12.226Z,95670.81
2023-05-15T16:13:40.964Z,95680.75
2023-05-15T16:16:08.166Z,95674.66
2023-05-15T16:18:35.497Z,95663.63
2023-05-15T16:21:02.447Z,95649.09
2023-05-15T16:23:33.691Z,95654.84
2023-05-15T16:26:00.813Z,95681.91
2023-05-15T16:28:27.639Z,95666.22
2023-05-15T16:33:22.041Z,95661.94
2023-05-15T16:35:48.898Z,95686.75
2023-05-15T16:38:16.867Z,95652.47
2023-05-15T16:40:43.901Z,95680.31
2023-05-15T16:43:10.859Z,95677.28
2023-05-15T16:45:37.833Z,95676.50
2023-05-15T16:48:05.110Z,95683.00
2023-05-15T16:50:33.156Z,95687.97
2023-05-15T16:53:00.013Z,95691.03
2023-05-15T16:55:27.372Z,95687.59
2023-05-15T16:57:54.348Z,95696.75
2023-05-15T17:00:21.562Z,95686.47
2023-05-15T17:02:49.707Z,95697.16
2023-05-15T17:05:16.875Z,95696.38
2023-05-15T17:07:44.880Z,95665.88
2023-05-15T17:10:12.858Z,95693.72
2023-05-15T17:12:39.980Z,95685.72
2023-05-15T17:15:07.645Z,95670.47
2023-05-15T17:17:34.981Z,95685.34
2023-05-15T17:20:02.972Z,95683.06
2023-05-15T17:22:30.732Z,95691.47
2023-05-15T17:24:57.728Z,95699.88
2023-05-15T17:27:24.718Z,95697.16
2023-05-15T17:29:51.629Z,95670.81
2023-05-15T17:32:19.155Z,95685.69
2023-05-15T17:34:46.751Z,95687.56
2023-05-15T17:37:13.995Z,95708.19
2023-05-15T17:39:41.000Z,95704.34
2023-05-15T17:42:07.976Z,95671.50
2023-05-15T17:44:34.956Z,95676.44
2023-05-15T17:47:01.969Z,95716.88
2023-05-15T17:49:29.061Z,95706.59
2023-05-15T17:51:56.206Z,95717.25
2023-05-15T17:54:23.166Z,95688.22
2023-05-15T17:56:50.028Z,95717.22
2023-05-15T17:59:17.015Z,95716.78
2023-05-15T18:01:44.038Z,95702.28
2023-05-15T18:04:11.099Z,95717.16
2023-05-15T18:06:38.492Z,95704.97
2023-05-15T18:09:05.483Z,95724.44
2023-05-15T18:11:32.597Z,95712.19
2023-05-15T18:13:59.713Z,95730.47
2023-05-15T18:16:27.006Z,95737.78
2023-05-15T18:18:54.075Z,95741.94
2023-05-15T18:21:21.252Z,95743.44
2023-05-15T18:23:48.205Z,95757.16
2023-05-15T18:26:15.116Z,95749.50
2023-05-15T18:28:42.079Z,95748.69
2023-05-15T18:31:09.130Z,95771.53
2023-05-15T18:33:36.400Z,95730.56
2023-05-15T18:36:05.968Z,95767.63
2023-05-15T18:38:34.317Z,95767.53
2023-05-15T18:41:01.266Z,95728.28
2023-05-15T18:43:28.318Z,95759.88
2023-05-15T18:45:55.277Z,95780.72
2023-05-15T18:48:22.157Z,95764.31
2023-05-15T18:50:49.140Z,95757.06
2023-05-15T18:53:16.152Z,95794.88
2023-05-15T18:55:43.113Z,95790.19
2023-05-15T18:58:10.213Z,95778.94
2023-05-15T19:00:38.730Z,95795.53
2023-05-15T19:03:07.084Z,95798.91
2023-05-15T19:05:34.382Z,95780.59
2023-05-15T19:08:02.065Z,95789.56
2023-05-15T19:10:29.831Z,95797.31
2023-05-15T19:12:57.569Z,95756.97
2023-05-15T19:15:25.362Z,95804.81
2023-05-15T19:17:52.382Z,95810.66
2023-05-15T19:20:19.691Z,95807.53
2023-05-15T19:22:46.822Z,95813.22
2023-05-15T19:25:13.931Z,95798.66
2023-05-15T19:27:40.841Z,95798.53
2023-05-15T19:30:09.522Z,95821.41
2023-05-15T19:32:36.708Z,95827.44
2023-05-15T19:35:03.908Z,95834.41
2023-05-15T19:37:30.822Z,95826.72
2023-05-15T19:39:57.800Z,95819.31
2023-05-15T19:42:24.790Z,95800.38
2023-05-15T19:44:51.614Z,95830.44
2023-05-15T19:47:18.539Z,95832.81
2023-05-15T19:49:45.824Z,95824.97
2023-05-15T19:52:12.726Z,95821.38
2023-05-15T19:54:39.597Z,95825.34
2023-05-15T19:57:06.496Z,95818.03
2023-05-15T19:59:33.523Z,95832.22
2023-05-15T20:02:01.856Z,95814.69
2023-05-15T20:04:29.221Z,95811.69
2023-05-15T20:06:56.159Z,95815.09
2023-05-15T20:09:22.970Z,95828.63
2023-05-15T20:11:49.938Z,95841.25
2023-05-15T20:14:16.895Z,95806.19
2023-05-15T20:16:43.842Z,95816.09
2023-05-15T20:19:11.381Z,95816.81
2023-05-15T20:21:39.057Z,95819.13
2023-05-15T20:24:07.153Z,95799.91
2023-05-15T20:26:36.115Z,95831.75
2023-05-15T20:29:03.802Z,95820.66
2023-05-15T20:31:30.843Z,95811.16
2023-05-15T20:33:57.978Z,95823.31
2023-05-15T20:36:28.455Z,95853.97
2023-05-15T20:38:56.080Z,95837.13
2023-05-15T20:41:23.314Z,95833.53
2023-05-15T20:43:50.757Z,95850.09
2023-05-15T20:46:17.910Z,95834.94
2023-05-15T20:48:45.050Z,95849.75
2023-05-15T20:51:11.941Z,95856.47
2023-05-15T20:53:38.806Z,95844.97
2023-05-15T20:56:05.842Z,95845.25
2023-05-15T20:58:33.499Z,95860.41
2023-05-15T21:01:03.386Z,95850.22
2023-05-15T21:03:30.602Z,95828.69
2023-05-15T21:05:57.794Z,95845.69
2023-05-15T21:08:24.887Z,95824.66
2023-05-15T21:10:53.340Z,95830.63
2023-05-15T21:13:20.356Z,95853.59
2023-05-15T21:15:47.485Z,95852.34
2023-05-15T21:18:14.414Z,95848.91
2023-05-15T21:20:41.970Z,95853.47
2023-05-15T21:23:08.975Z,95834.00
2023-05-15T21:25:37.972Z,95847.50
2023-05-15T21:28:05.051Z,95823.94
2023-05-15T21:30:32.146Z,95844.81
2023-05-15T21:32:59.378Z,95845.84
2023-05-15T21:35:29.111Z,95832.88
2023-05-15T21:37:56.111Z,95834.69
2023-05-15T21:40:23.295Z,95820.66
2023-05-15T21:42:50.202Z,95848.78
2023-05-15T21:45:17.689Z,95837.19
2023-05-15T21:47:44.664Z,95848.38
2023-05-15T21:50:11.717Z,95848.16
2023-05-15T21:52:38.699Z,95828.84
2023-05-15T21:55:06.217Z,95824.03
2023-05-15T21:57:33.154Z,95851.19
2023-05-15T22:00:00.208Z,95832.38
2023-05-15T22:02:27.257Z,95851.53
2023-05-15T22:04:54.180Z,95861.47
2023-05-15T22:07:21.046Z,95826.44
2023-05-15T22:09:47.909Z,95822.69
2023-05-15T22:12:14.783Z,95855.47
2023-05-15T22:14:57.099Z,95859.47
2023-05-15T22:17:27.465Z,95857.13
2023-05-15T22:19:54.718Z,95859.53
2023-05-15T22:22:21.634Z,95844.72
2023-05-15T22:24:48.502Z,95850.16
2023-05-15T22:27:16.984Z,95825.16
2023-05-15T22:29:43.880Z,95856.63
2023-05-15T22:32:10.917Z,95841.56
2023-05-15T22:34:38.456Z,95862.66
2023-05-15T22:37:05.625Z,95849.41
2023-05-15T22:39:33.058Z,95867.34
2023-05-15T22:41:59.942Z,95830.28
2023-05-15T22:44:26.871Z,95832.16
2023-05-15T22:46:55.987Z,95826.38
2023-05-15T22:49:26.672Z,95832.50
2023-05-15T22:51:55.568Z,95847.00
2023-05-15T22:54:23.563Z,95836.56
2023-05-15T22:56:54.218Z,95843.16
2023-05-15T22:59:21.850Z,95841.88
2023-05-15T23:01:49.421Z,95852.78
2023-05-15T23:04:17.503Z,95834.88
2023-05-15T23:06:44.755Z,95863.34
2023-05-15T23:09:14.439Z,95862.91
2023-05-15T23:11:41.385Z,95817.03
2023-05-15T23:14:08.611Z,95859.28
2023-05-15T23:16:36.185Z,95853.22
2023-05-15T23:19:03.373Z,95838.41
2023-05-15T23:21:30.383Z,95832.25
2023-05-15T23:24:00.577Z,95844.38
2023-05-15T23:26:27.758Z,95824.91
2023-05-15T23:28:54.619Z,95861.41
2023-05-15T23:31:21.713Z,95842.16
2023-05-15T23:33:48.669Z,95842.84
2023-05-15T23:36:15.548Z,95857.00
2023-05-15T23:38:42.466Z,95845.59
2023-05-15T23:41:09.432Z,95861.91
2023-05-15T23:43:36.338Z,95867.41
2023-05-15T23:46:03.564Z,95849.47
2023-05-15T23:48:31.887Z,95840.91
2023-05-15T23:50:58.968Z,95871.47
2023-05-15T23:53:26.022Z,95863.03
2023-05-15T23:55:53.817Z,95866.34
2023-05-15T23:58:21.594Z,95852.63
